sensor_id;sensor_type;location;lat;lon;timestamp;temperature;humidity
35633;DHT22;21754;48.216;-1.628;2022-11-15T03:37:15;14.60;99.90
35633;DHT22;21754;48.216;-1.628;2022-11-15T03:39:42;14.60;99.90
35633;DHT22;21754;48.216;-1.628;2022-11-15T03:42:28;14.70;99.90
35633;DHT22;21754;48.216;-1.628;2022-11-15T03:45:03;14.70;99.90
35633;DHT22;21754;48.216;-1.628;2022-11-15T03:47:38;14.70;99.90
35633;DHT22;21754;48.216;-1.628;2022-11-15T03:50:11;14.70;99.90
35633;DHT22;21754;48.216;-1.628;2022-11-15T03:52:39;14.70;99.90
35633;DHT22;21754;48.216;-1.628;2022-11-15T03:55:07;14.70;99.90
35633;DHT22;21754;48.216;-1.628;2022-11-15T03:57:33;14.70;99.90
35633;DHT22;21754;48.216;-1.628;2022-11-15T03:59:58;14.80;99.90
35633;DHT22;21754;48.216;-1.628;2022-11-15T04:02:24;14.80;99.90
35633;DHT22;21754;48.216;-1.628;2022-11-15T04:04:49;14.80;99.90
35633;DHT22;21754;48.216;-1.628;2022-11-15T04:07:15;14.70;99.90
35633;DHT22;21754;48.216;-1.628;2022-11-15T04:09:41;14.70;99.90
35633;DHT22;21754;48.216;-1.628;2022-11-15T04:12:25;14.80;99.90
35633;DHT22;21754;48.216;-1.628;2022-11-15T04:15:01;14.70;99.90
35633;DHT22;21754;48.216;-1.628;2022-11-15T04:17:41;14.70;99.90
35633;DHT22;21754;48.216;-1.628;2022-11-15T04:20:13;14.70;99.90
35633;DHT22;21754;48.216;-1.628;2022-11-15T04:22:59;14.70;99.90
35633;DHT22;21754;48.216;-1.628;2022-11-15T04:25:44;14.80;99.90
35633;DHT22;21754;48.216;-1.628;2022-11-15T04:28:11;14.70;99.90
35633;DHT22;21754;48.216;-1.628;2022-11-15T04:30:37;14.70;99.90
35633;DHT22;21754;48.216;-1.628;2022-11-15T04:33:03;14.70;99.90
35633;DHT22;21754;48.216;-1.628;2022-11-15T04:35:29;14.70;99.90
35633;DHT22;21754;48.216;-1.628;2022-11-15T04:37:55;14.80;99.90
35633;DHT22;21754;48.216;-1.628;2022-11-15T04:40:21;14.80;99.90
35633;DHT22;21754;48.216;-1.628;2022-11-15T04:42:47;14.80;99.90
35633;DHT22;21754;48.216;-1.628;2022-11-15T04:45:12;14.70;99.90
35633;DHT22;21754;48.216;-1.628;2022-11-15T04:47:38;14.70;99.90
35633;DHT22;21754;48.216;-1.628;2022-11-15T04:50:04;14.80;99.90
35633;DHT22;21754;48.216;-1.628;2022-11-15T04:52:30;14.80;99.90
35633;DHT22;21754;48.216;-1.628;2022-11-15T04:54:55;14.90;99.90
35633;DHT22;21754;48.216;-1.628;2022-11-15T04:57:21;14.90;99.90
35633;DHT22;21754;48.216;-1.628;2022-11-15T04:59:47;14.80;99.90
35633;DHT22;21754;48.216;-1.628;2022-11-15T05:02:12;14.80;99.90
35633;DHT22;21754;48.216;-1.628;2022-11-15T05:04:38;14.70;99.90
35633;DHT22;21754;48.216;-1.628;2022-11-15T05:07:04;14.70;99.90
35633;DHT22;21754;48.216;-1.628;2022-11-15T05:09:30;14.70;99.90
35633;DHT22;21754;48.216;-1.628;2022-11-15T05:11:55;14.70;99.90
35633;DHT22;21754;48.216;-1.628;2022-11-15T05:14:21;14.70;99.90
35633;DHT22;21754;48.216;-1.628;2022-11-15T05:16:46;14.60;99.90
35633;DHT22;21754;48.216;-1.628;2022-11-15T05:19:12;14.50;99.90
35633;DHT22;21754;48.216;-1.628;2022-11-15T05:21:38;14.50;99.90
35633;DHT22;21754;48.216;-1.628;2022-11-15T05:24:04;14.50;99.90
35633;DHT22;21754;48.216;-1.628;2022-11-15T05:26:30;14.50;99.90
35633;DHT22;21754;48.216;-1.628;2022-11-15T05:28:57;14.60;99.90
35633;DHT22;21754;48.216;-1.628;2022-11-15T05:31:23;14.60;99.90
35633;DHT22;21754;48.216;-1.628;2022-11-15T05:33:50;14.70;99.90
35633;DHT22;21754;48.216;-1.628;2022-11-15T05:38:53;14.70;99.90
35633;DHT22;21754;48.216;-1.628;2022-11-15T05:41:22;14.70;99.90
35633;DHT22;21754;48.216;-1.628;2022-11-15T05:43:50;14.70;99.90
35633;DHT22;21754;48.216;-1.628;2022-11-15T05:46:17;14.70;99.90
35633;DHT22;21754;48.216;-1.628;2022-11-15T05:48:45;14.70;99.90
35633;DHT22;21754;48.216;-1.628;2022-11-15T05:51:14;14.70;99.90
35633;DHT22;21754;48.216;-1.628;2022-11-15T05:53:40;14.70;99.90
35633;DHT22;21754;48.216;-1.628;2022-11-15T05:56:06;14.70;99.90
35633;DHT22;21754;48.216;-1.628;2022-11-15T05:58:33;14.60;99.90
35633;DHT22;21754;48.216;-1.628;2022-11-15T06:00:59;14.70;99.90
35633;DHT22;21754;48.216;-1.628;2022-11-15T06:03:25;14.60;99.90
35633;DHT22;21754;48.216;-1.628;2022-11-15T06:05:51;14.60;99.90
35633;DHT22;21754;48.216;-1.628;2022-11-15T06:08:16;14.70;99.90
35633;DHT22;21754;48.216;-1.628;2022-11-15T06:10:42;14.70;99.90
35633;DHT22;21754;48.216;-1.628;2022-11-15T06:13:08;14.80;99.90
35633;DHT22;21754;48.216;-1.628;2022-11-15T06:15:33;14.80;99.90
35633;DHT22;21754;48.216;-1.628;2022-11-15T06:17:59;14.80;99.90
35633;DHT22;21754;48.216;-1.628;2022-11-15T06:20:27;14.90;99.90
35633;DHT22;21754;48.216;-1.628;2022-11-15T06:22:57;14.80;99.90
35633;DHT22;21754;48.216;-1.628;2022-11-15T06:25:23;14.80;99.90
35633;DHT22;21754;48.216;-1.628;2022-11-15T06:27:56;14.80;99.90
35633;DHT22;21754;48.216;-1.628;2022-11-15T06:30:22;14.70;99.90
35633;DHT22;21754;48.216;-1.628;2022-11-15T06:32:49;14.70;99.90
35633;DHT22;21754;48.216;-1.628;2022-11-15T06:35:15;14.70;99.90
35633;DHT22;21754;48.216;-1.628;2022-11-15T06:37:41;14.70;99.90
35633;DHT22;21754;48.216;-1.628;2022-11-15T06:40:08;14.60;99.90
35633;DHT22;21754;48.216;-1.628;2022-11-15T06:42:34;14.60;99.90
35633;DHT22;21754;48.216;-1.628;2022-11-15T06:45:00;14.60;99.90
35633;DHT22;21754;48.216;-1.628;2022-11-15T06:47:26;14.50;99.90
35633;DHT22;21754;48.216;-1.628;2022-11-15T06:49:52;14.60;99.90
35633;DHT22;21754;48.216;-1.628;2022-11-15T06:52:18;14.70;99.90
35633;DHT22;21754;48.216;-1.628;2022-11-15T06:54:44;14.60;99.90
35633;DHT22;21754;48.216;-1.628;2022-11-15T06:57:10;14.70;99.90
35633;DHT22;21754;48.216;-1.628;2022-11-15T06:59:36;14.60;99.90
35633;DHT22;21754;48.216;-1.628;2022-11-15T07:02:02;14.60;99.90
35633;DHT22;21754;48.216;-1.628;2022-11-15T07:04:28;14.50;99.90
35633;DHT22;21754;48.216;-1.628;2022-11-15T07:06:54;14.50;99.90
35633;DHT22;21754;48.216;-1.628;2022-11-15T07:09:19;14.60;99.90
35633;DHT22;21754;48.216;-1.628;2022-11-15T07:11:45;14.60;99.90
35633;DHT22;21754;48.216;-1.628;2022-11-15T07:14:11;14.60;99.90
35633;DHT22;21754;48.216;-1.628;2022-11-15T07:16:37;14.60;99.90
35633;DHT22;21754;48.216;-1.628;2022-11-15T07:19:03;14.60;99.90
35633;DHT22;21754;48.216;-1.628;2022-11-15T07:21:29;14.70;99.90
35633;DHT22;21754;48.216;-1.628;2022-11-15T07:23:55;14.70;99.90
35633;DHT22;21754;48.216;-1.628;2022-11-15T07:26:20;14.80;99.90
35633;DHT22;21754;48.216;-1.628;2022-11-15T07:28:46;14.90;99.90
35633;DHT22;21754;48.216;-1.628;2022-11-15T07:31:12;14.90;99.90
35633;DHT22;21754;48.216;-1.628;2022-11-15T07:33:38;14.90;99.90
35633;DHT22;21754;48.216;-1.628;2022-11-15T07:36:05;14.90;99.90
35633;DHT22;21754;48.216;-1.628;2022-11-15T07:38:32;15.00;99.90
35633;DHT22;21754;48.216;-1.628;2022-11-15T07:41:02;14.80;99.90
35633;DHT22;21754;48.216;-1.628;2022-11-15T07:43:28;14.90;99.90
35633;DHT22;21754;48.216;-1.628;2022-11-15T07:45:55;15.00;99.90
35633;DHT22;21754;48.216;-1.628;2022-11-15T07:48:21;15.00;99.90
35633;DHT22;21754;48.216;-1.628;2022-11-15T07:50:47;15.00;99.90
35633;DHT22;21754;48.216;-1.628;2022-11-15T07:53:13;15.10;99.90
35633;DHT22;21754;48.216;-1.628;2022-11-15T07:55:40;15.20;99.90
35633;DHT22;21754;48.216;-1.628;2022-11-15T07:58:08;15.20;99.90
35633;DHT22;21754;48.216;-1.628;2022-11-15T08:00:35;15.10;99.90
35633;DHT22;21754;48.216;-1.628;2022-11-15T08:03:05;15.20;99.90
35633;DHT22;21754;48.216;-1.628;2022-11-15T08:05:32;15.30;99.90
35633;DHT22;21754;48.216;-1.628;2022-11-15T08:07:58;15.20;99.90
35633;DHT22;21754;48.216;-1.628;2022-11-15T08:10:24;15.30;99.90
35633;DHT22;21754;48.216;-1.628;2022-11-15T08:13:02;15.30;99.90
35633;DHT22;21754;48.216;-1.628;2022-11-15T08:15:29;15.30;99.90
35633;DHT22;21754;48.216;-1.628;2022-11-15T08:17:56;15.20;99.90
35633;DHT22;21754;48.216;-1.628;2022-11-15T08:20:23;15.10;99.90
35633;DHT22;21754;48.216;-1.628;2022-11-15T08:22:49;15.10;99.90
35633;DHT22;21754;48.216;-1.628;2022-11-15T08:25:15;15.20;99.90
35633;DHT22;21754;48.216;-1.628;2022-11-15T08:27:40;15.20;99.90
35633;DHT22;21754;48.216;-1.628;2022-11-15T08:30:06;15.20;99.90
35633;DHT22;21754;48.216;-1.628;2022-11-15T08:32:32;15.30;99.90
35633;DHT22;21754;48.216;-1.628;2022-11-15T08:34:58;15.40;99.90
35633;DHT22;21754;48.216;-1.628;2022-11-15T08:37:23;15.30;99.90
35633;DHT22;21754;48.216;-1.628;2022-11-15T08:39:49;15.30;99.90
35633;DHT22;21754;48.216;-1.628;2022-11-15T08:42:15;15.40;99.90
35633;DHT22;21754;48.216;-1.628;2022-11-15T08:44:41;15.30;99.90
35633;DHT22;21754;48.216;-1.628;2022-11-15T08:47:07;15.40;99.90
35633;DHT22;21754;48.216;-1.628;2022-11-15T08:49:35;15.40;99.90
35633;DHT22;21754;48.216;-1.628;2022-11-15T08:52:01;15.40;99.90
35633;DHT22;21754;48.216;-1.628;2022-11-15T08:54:27;15.40;99.90
35633;DHT22;21754;48.216;-1.628;2022-11-15T08:56:52;15.40;99.90
35633;DHT22;21754;48.216;-1.628;2022-11-15T08:59:18;15.50;99.90
35633;DHT22;21754;48.216;-1.628;2022-11-15T09:01:44;15.60;99.90
35633;DHT22;21754;48.216;-1.628;2022-11-15T09:04:09;15.60;99.90
35633;DHT22;21754;48.216;-1.628;2022-11-15T09:06:35;15.70;99.90
35633;DHT22;21754;48.216;-1.628;2022-11-15T09:09:02;15.70;99.90
35633;DHT22;21754;48.216;-1.628;2022-11-15T09:11:27;15.70;99.90
35633;DHT22;21754;48.216;-1.628;2022-11-15T09:13:53;15.80;99.90
35633;DHT22;21754;48.216;-1.628;2022-11-15T09:16:19;15.70;99.90
35633;DHT22;21754;48.216;-1.628;2022-11-15T09:18:45;15.70;99.90
35633;DHT22;21754;48.216;-1.628;2022-11-15T09:21:11;15.70;99.90
35633;DHT22;21754;48.216;-1.628;2022-11-15T09:23:37;15.70;99.90
35633;DHT22;21754;48.216;-1.628;2022-11-15T09:26:03;15.80;99.90
35633;DHT22;21754;48.216;-1.628;2022-11-15T09:28:30;15.80;99.90
35633;DHT22;21754;48.216;-1.628;2022-11-15T09:31:01;15.80;99.90
35633;DHT22;21754;48.216;-1.628;2022-11-15T09:33:28;15.90;99.90
35633;DHT22;21754;48.216;-1.628;2022-11-15T09:35:54;16.00;99.90
35633;DHT22;21754;48.216;-1.628;2022-11-15T09:38:19;16.00;99.90
35633;DHT22;21754;48.216;-1.628;2022-11-15T09:40:50;16.10;99.90
35633;DHT22;21754;48.216;-1.628;2022-11-15T09:43:30;16.00;99.90
35633;DHT22;21754;48.216;-1.628;2022-11-15T09:48:55;16.10;99.90
35633;DHT22;21754;48.216;-1.628;2022-11-15T09:56:30;16.30;99.90
35633;DHT22;21754;48.216;-1.628;2022-11-15T09:59:21;16.10;99.90
35633;DHT22;21754;48.216;-1.628;2022-11-15T10:04:26;16.10;99.90
35633;DHT22;21754;48.216;-1.628;2022-11-15T10:07:04;16.10;99.90
35633;DHT22;21754;48.216;-1.628;2022-11-15T10:09:41;16.10;99.90
35633;DHT22;21754;48.216;-1.628;2022-11-15T10:12:08;16.30;99.90
35633;DHT22;21754;48.216;-1.628;2022-11-15T10:14:35;16.40;99.90
35633;DHT22;21754;48.216;-1.628;2022-11-15T10:17:30;16.50;99.90
35633;DHT22;21754;48.216;-1.628;2022-11-15T10:20:20;16.50;99.90
35633;DHT22;21754;48.216;-1.628;2022-11-15T10:22:49;16.50;99.90
35633;DHT22;21754;48.216;-1.628;2022-11-15T10:25:20;16.50;99.90
35633;DHT22;21754;48.216;-1.628;2022-11-15T10:28:47;16.50;99.90
35633;DHT22;21754;48.216;-1.628;2022-11-15T10:30:57;16.40;99.90
35633;DHT22;21754;48.216;-1.628;2022-11-15T10:36:16;16.50;99.90
35633;DHT22;21754;48.216;-1.628;2022-11-15T10:53:51;16.70;99.90
35633;DHT22;21754;48.216;-1.628;2022-11-15T10:56:21;17.20;99.90
35633;DHT22;21754;48.216;-1.628;2022-11-15T10:58:58;17.30;99.90
35633;DHT22;21754;48.216;-1.628;2022-11-15T11:01:28;17.40;99.90
35633;DHT22;21754;48.216;-1.628;2022-11-15T11:04:06;17.40;99.90
35633;DHT22;21754;48.216;-1.628;2022-11-15T11:06:55;17.40;99.90
35633;DHT22;21754;48.216;-1.628;2022-11-15T11:09:35;17.40;99.90
35633;DHT22;21754;48.216;-1.628;2022-11-15T11:12:03;17.50;99.90
35633;DHT22;21754;48.216;-1.628;2022-11-15T11:14:31;17.50;99.90
35633;DHT22;21754;48.216;-1.628;2022-11-15T11:31:23;17.50;99.90
35633;DHT22;21754;48.216;-1.628;2022-11-15T11:42:16;17.60;99.90
35633;DHT22;21754;48.216;-1.628;2022-11-15T11:47:27;17.50;99.90
35633;DHT22;21754;48.216;-1.628;2022-11-15T11:49:59;17.50;99.90
35633;DHT22;21754;48.216;-1.628;2022-11-15T11:52:33;17.40;99.90
35633;DHT22;21754;48.216;-1.628;2022-11-15T11:55:16;17.40;99.90
35633;DHT22;21754;48.216;-1.628;2022-11-15T12:00:52;17.50;99.90
35633;DHT22;21754;48.216;-1.628;2022-11-15T12:03:42;17.40;99.90
35633;DHT22;21754;48.216;-1.628;2022-11-15T12:17:13;17.10;99.90
35633;DHT22;21754;48.216;-1.628;2022-11-15T12:19:41;17.10;99.90
35633;DHT22;21754;48.216;-1.628;2022-11-15T12:22:23;17.20;99.90
35633;DHT22;21754;48.216;-1.628;2022-11-15T12:25:00;17.20;99.90
35633;DHT22;21754;48.216;-1.628;2022-11-15T12:27:36;17.20;99.90
35633;DHT22;21754;48.216;-1.628;2022-11-15T12:30:12;17.30;99.90
35633;DHT22;21754;48.216;-1.628;2022-11-15T12:32:39;17.30;99.90
35633;DHT22;21754;48.216;-1.628;2022-11-15T12:35:31;17.30;99.90
35633;DHT22;21754;48.216;-1.628;2022-11-15T12:37:58;17.20;99.90
35633;DHT22;21754;48.216;-1.628;2022-11-15T12:40:26;17.20;99.90
35633;DHT22;21754;48.216;-1.628;2022-11-15T12:43:04;17.20;99.90
35633;DHT22;21754;48.216;-1.628;2022-11-15T12:45:37;17.20;99.90
35633;DHT22;21754;48.216;-1.628;2022-11-15T12:50:56;17.30;99.90
35633;DHT22;21754;48.216;-1.628;2022-11-15T12:58:52;17.30;99.90
35633;DHT22;21754;48.216;-1.628;2022-11-15T13:42:41;17.40;99.90
35633;DHT22;21754;48.216;-1.628;2022-11-15T13:45:14;17.90;99.90
35633;DHT22;21754;48.216;-1.628;2022-11-15T18:54:26;18.00;99.90
35633;DHT22;21754;48.216;-1.628;2022-11-15T18:56:52;13.90;99.90
35633;DHT22;21754;48.216;-1.628;2022-11-15T18:59:18;13.90;99.90
35633;DHT22;21754;48.216;-1.628;2022-11-15T19:01:45;13.80;99.90
35633;DHT22;21754;48.216;-1.628;2022-11-15T22:30:49;13.80;99.90
35633;DHT22;21754;48.216;-1.628;2022-11-15T22:33:16;12.60;99.90
